sensor_id;sensor_type;location;lat;lon;timestamp;P1;durP1;ratioP1;P2;durP2;ratioP2
73452;SDS011;61687;56.232;43.854;2023-05-08T00:01:48;28.30;;;12.88;;
73452;SDS011;61687;56.232;43.854;2023-05-08T00:04:14;28.70;;;13.85;;
73452;SDS011;61687;56.232;43.854;2023-05-08T00:06:42;26.15;;;12.75;;
73452;SDS011;61687;56.232;43.854;2023-05-08T00:09:08;25.70;;;13.43;;
73452;SDS011;61687;56.232;43.854;2023-05-08T00:11:34;28.33;;;14.07;;
73452;SDS011;61687;56.232;43.854;2023-05-08T00:14:00;23.95;;;12.45;;
73452;SDS011;61687;56.232;43.854;2023-05-08T00:16:26;25.15;;;13.25;;
73452;SDS011;61687;56.232;43.854;2023-05-08T00:18:52;23.42;;;11.45;;
73452;SDS011;61687;56.232;43.854;2023-05-08T00:21:19;24.80;;;12.50;;
73452;SDS011;61687;56.232;43.854;2023-05-08T00:23:45;19.92;;;12.05;;
73452;SDS011;61687;56.232;43.854;2023-05-08T00:26:11;21.92;;;12.55;;
73452;SDS011;61687;56.232;43.854;2023-05-08T00:28:37;23.33;;;12.07;;
73452;SDS011;61687;56.232;43.854;2023-05-08T00:31:03;30.02;;;13.43;;
73452;SDS011;61687;56.232;43.854;2023-05-08T00:33:30;26.92;;;12.55;;
73452;SDS011;61687;56.232;43.854;2023-05-08T00:36:03;21.48;;;12.77;;
73452;SDS011;61687;56.232;43.854;2023-05-08T00:38:30;21.33;;;11.50;;
73452;SDS011;61687;56.232;43.854;2023-05-08T00:40:58;27.90;;;12.80;;
73452;SDS011;61687;56.232;43.854;2023-05-08T00:43:24;19.58;;;11.18;;
73452;SDS011;61687;56.232;43.854;2023-05-08T00:45:54;20.95;;;11.23;;
73452;SDS011;61687;56.232;43.854;2023-05-08T00:48:21;22.23;;;11.32;;
73452;SDS011;61687;56.232;43.854;2023-05-08T00:50:48;19.77;;;10.98;;
73452;SDS011;61687;56.232;43.854;2023-05-08T00:53:16;19.08;;;11.20;;
73452;SDS011;61687;56.232;43.854;2023-05-08T00:55:43;21.30;;;12.10;;
73452;SDS011;61687;56.232;43.854;2023-05-08T00:58:10;23.55;;;11.55;;
73452;SDS011;61687;56.232;43.854;2023-05-08T01:00:38;23.52;;;12.30;;
73452;SDS011;61687;56.232;43.854;2023-05-08T01:03:06;21.05;;;11.48;;
73452;SDS011;61687;56.232;43.854;2023-05-08T01:05:34;25.02;;;11.95;;
73452;SDS011;61687;56.232;43.854;2023-05-08T01:08:01;20.10;;;10.73;;
73452;SDS011;61687;56.232;43.854;2023-05-08T01:10:38;21.77;;;11.65;;
73452;SDS011;61687;56.232;43.854;2023-05-08T01:13:13;22.02;;;11.73;;
73452;SDS011;61687;56.232;43.854;2023-05-08T01:15:49;22.05;;;11.95;;
73452;SDS011;61687;56.232;43.854;2023-05-08T01:18:27;20.35;;;11.40;;
73452;SDS011;61687;56.232;43.854;2023-05-08T01:21:12;22.92;;;11.18;;
73452;SDS011;61687;56.232;43.854;2023-05-08T01:24:09;20.90;;;11.98;;
73452;SDS011;61687;56.232;43.854;2023-05-08T01:29:46;22.65;;;11.85;;
73452;SDS011;61687;56.232;43.854;2023-05-08T01:32:37;20.73;;;11.93;;
73452;SDS011;61687;56.232;43.854;2023-05-08T01:37:44;21.50;;;11.82;;
73452;SDS011;61687;56.232;43.854;2023-05-08T01:40:27;25.30;;;12.32;;
73452;SDS011;61687;56.232;43.854;2023-05-08T01:45:49;20.55;;;10.85;;
73452;SDS011;61687;56.232;43.854;2023-05-08T01:48:29;22.10;;;11.00;;
73452;SDS011;61687;56.232;43.854;2023-05-08T01:51:05;21.02;;;11.20;;
73452;SDS011;61687;56.232;43.854;2023-05-08T01:53:42;19.83;;;10.90;;
73452;SDS011;61687;56.232;43.854;2023-05-08T01:56:13;28.83;;;10.77;;
73452;SDS011;61687;56.232;43.854;2023-05-08T01:58:42;22.35;;;12.00;;
73452;SDS011;61687;56.232;43.854;2023-05-08T02:01:10;21.52;;;11.30;;
73452;SDS011;61687;56.232;43.854;2023-05-08T02:03:38;19.33;;;10.35;;
73452;SDS011;61687;56.232;43.854;2023-05-08T02:06:07;17.95;;;10.32;;
73452;SDS011;61687;56.232;43.854;2023-05-08T02:08:37;20.33;;;10.85;;
73452;SDS011;61687;56.232;43.854;2023-05-08T02:11:04;17.42;;;10.25;;
73452;SDS011;61687;56.232;43.854;2023-05-08T02:13:33;16.80;;;10.35;;
73452;SDS011;61687;56.232;43.854;2023-05-08T02:16:00;16.92;;;10.50;;
73452;SDS011;61687;56.232;43.854;2023-05-08T02:18:28;22.27;;;11.35;;
73452;SDS011;61687;56.232;43.854;2023-05-08T02:20:56;18.15;;;10.35;;
73452;SDS011;61687;56.232;43.854;2023-05-08T02:23:46;18.05;;;10.82;;
73452;SDS011;61687;56.232;43.854;2023-05-08T02:26:13;17.83;;;10.60;;
73452;SDS011;61687;56.232;43.854;2023-05-08T02:28:40;20.55;;;10.02;;
73452;SDS011;61687;56.232;43.854;2023-05-08T02:31:07;17.15;;;10.20;;
73452;SDS011;61687;56.232;43.854;2023-05-08T02:33:36;19.40;;;10.27;;
73452;SDS011;61687;56.232;43.854;2023-05-08T02:36:05;16.92;;;9.32;;
73452;SDS011;61687;56.232;43.854;2023-05-08T02:38:32;16.20;;;9.63;;
73452;SDS011;61687;56.232;43.854;2023-05-08T02:41:02;16.48;;;8.63;;
73452;SDS011;61687;56.232;43.854;2023-05-08T02:43:31;16.45;;;9.60;;
73452;SDS011;61687;56.232;43.854;2023-05-08T02:48:33;18.73;;;9.02;;
73452;SDS011;61687;56.232;43.854;2023-05-08T02:51:22;17.83;;;9.77;;
73452;SDS011;61687;56.232;43.854;2023-05-08T02:57:22;18.80;;;9.25;;
73452;SDS011;61687;56.232;43.854;2023-05-08T02:59:38;16.73;;;9.13;;
73452;SDS011;61687;56.232;43.854;2023-05-08T03:02:09;16.60;;;7.93;;
73452;SDS011;61687;56.232;43.854;2023-05-08T03:04:48;15.52;;;8.45;;
73452;SDS011;61687;56.232;43.854;2023-05-08T03:07:22;14.48;;;7.60;;
73452;SDS011;61687;56.232;43.854;2023-05-08T03:09:54;13.48;;;8.65;;
73452;SDS011;61687;56.232;43.854;2023-05-08T03:12:24;15.63;;;8.32;;
73452;SDS011;61687;56.232;43.854;2023-05-08T03:14:58;14.10;;;8.63;;
73452;SDS011;61687;56.232;43.854;2023-05-08T03:17:32;16.08;;;8.50;;
73452;SDS011;61687;56.232;43.854;2023-05-08T03:20:02;14.45;;;8.60;;
73452;SDS011;61687;56.232;43.854;2023-05-08T03:22:33;17.10;;;8.13;;
73452;SDS011;61687;56.232;43.854;2023-05-08T03:25:03;19.38;;;9.27;;
73452;SDS011;61687;56.232;43.854;2023-05-08T03:27:32;14.88;;;8.23;;
73452;SDS011;61687;56.232;43.854;2023-05-08T03:30:00;18.23;;;8.77;;
73452;SDS011;61687;56.232;43.854;2023-05-08T03:32:32;15.35;;;8.32;;
73452;SDS011;61687;56.232;43.854;2023-05-08T03:35:00;17.50;;;7.97;;
73452;SDS011;61687;56.232;43.854;2023-05-08T03:37:30;16.88;;;10.20;;
73452;SDS011;61687;56.232;43.854;2023-05-08T03:39:57;19.42;;;9.75;;
73452;SDS011;61687;56.232;43.854;2023-05-08T03:42:23;17.90;;;9.63;;
73452;SDS011;61687;56.232;43.854;2023-05-08T03:44:51;19.45;;;8.63;;
73452;SDS011;61687;56.232;43.854;2023-05-08T03:47:18;17.52;;;9.50;;
73452;SDS011;61687;56.232;43.854;2023-05-08T03:49:45;14.65;;;8.70;;
73452;SDS011;61687;56.232;43.854;2023-05-08T03:52:13;14.27;;;9.15;;
73452;SDS011;61687;56.232;43.854;2023-05-08T03:54:40;15.30;;;9.38;;
73452;SDS011;61687;56.232;43.854;2023-05-08T03:57:06;16.42;;;9.48;;
73452;SDS011;61687;56.232;43.854;2023-05-08T04:02:20;14.60;;;8.75;;
73452;SDS011;61687;56.232;43.854;2023-05-08T04:05:01;14.50;;;8.90;;
73452;SDS011;61687;56.232;43.854;2023-05-08T04:07:44;14.32;;;7.90;;
73452;SDS011;61687;56.232;43.854;2023-05-08T04:10:17;15.27;;;8.98;;
73452;SDS011;61687;56.232;43.854;2023-05-08T04:16:02;19.33;;;9.45;;
73452;SDS011;61687;56.232;43.854;2023-05-08T04:18:36;18.13;;;9.20;;
73452;SDS011;61687;56.232;43.854;2023-05-08T04:21:08;18.58;;;9.77;;
73452;SDS011;61687;56.232;43.854;2023-05-08T04:23:37;16.55;;;8.70;;
73452;SDS011;61687;56.232;43.854;2023-05-08T04:26:05;18.23;;;9.55;;
73452;SDS011;61687;56.232;43.854;2023-05-08T04:28:32;16.23;;;8.95;;
73452;SDS011;61687;56.232;43.854;2023-05-08T04:30:59;17.88;;;8.55;;
73452;SDS011;61687;56.232;43.854;2023-05-08T04:33:27;14.70;;;7.95;;
73452;SDS011;61687;56.232;43.854;2023-05-08T04:35:55;18.43;;;9.07;;
73452;SDS011;61687;56.232;43.854;2023-05-08T04:38:22;15.95;;;8.23;;
73452;SDS011;61687;56.232;43.854;2023-05-08T04:40:48;13.18;;;7.65;;
73452;SDS011;61687;56.232;43.854;2023-05-08T04:43:14;16.50;;;8.55;;
73452;SDS011;61687;56.232;43.854;2023-05-08T04:45:41;17.35;;;8.07;;
73452;SDS011;61687;56.232;43.854;2023-05-08T04:48:07;13.82;;;7.97;;
73452;SDS011;61687;56.232;43.854;2023-05-08T04:50:33;14.23;;;7.93;;
73452;SDS011;61687;56.232;43.854;2023-05-08T04:52:59;14.20;;;7.18;;
73452;SDS011;61687;56.232;43.854;2023-05-08T04:55:25;14.63;;;7.35;;
73452;SDS011;61687;56.232;43.854;2023-05-08T04:57:51;14.67;;;7.27;;
73452;SDS011;61687;56.232;43.854;2023-05-08T05:00:17;13.90;;;7.10;;
73452;SDS011;61687;56.232;43.854;2023-05-08T05:02:45;15.38;;;8.07;;
73452;SDS011;61687;56.232;43.854;2023-05-08T05:05:11;11.80;;;7.28;;
73452;SDS011;61687;56.232;43.854;2023-05-08T05:07:36;11.43;;;6.83;;
73452;SDS011;61687;56.232;43.854;2023-05-08T05:10:04;13.13;;;6.20;;
73452;SDS011;61687;56.232;43.854;2023-05-08T05:12:33;14.15;;;7.00;;
73452;SDS011;61687;56.232;43.854;2023-05-08T05:14:59;14.25;;;7.25;;
73452;SDS011;61687;56.232;43.854;2023-05-08T05:17:34;9.60;;;5.82;;
73452;SDS011;61687;56.232;43.854;2023-05-08T05:20:01;11.97;;;5.87;;
73452;SDS011;61687;56.232;43.854;2023-05-08T05:22:33;9.27;;;5.95;;
73452;SDS011;61687;56.232;43.854;2023-05-08T05:24:59;14.80;;;5.90;;
73452;SDS011;61687;56.232;43.854;2023-05-08T05:27:25;10.32;;;6.25;;
73452;SDS011;61687;56.232;43.854;2023-05-08T05:29:51;7.50;;;4.60;;
73452;SDS011;61687;56.232;43.854;2023-05-08T05:32:17;7.93;;;4.95;;
73452;SDS011;61687;56.232;43.854;2023-05-08T05:34:44;11.05;;;5.47;;
73452;SDS011;61687;56.232;43.854;2023-05-08T05:37:09;8.68;;;5.25;;
73452;SDS011;61687;56.232;43.854;2023-05-08T05:39:36;8.77;;;4.90;;
73452;SDS011;61687;56.232;43.854;2023-05-08T05:42:03;6.77;;;4.13;;
73452;SDS011;61687;56.232;43.854;2023-05-08T05:44:30;7.95;;;4.45;;
73452;SDS011;61687;56.232;43.854;2023-05-08T05:46:56;6.38;;;4.18;;
73452;SDS011;61687;56.232;43.854;2023-05-08T05:49:23;6.13;;;3.78;;
73452;SDS011;61687;56.232;43.854;2023-05-08T05:51:49;8.25;;;4.10;;
73452;SDS011;61687;56.232;43.854;2023-05-08T05:54:15;8.93;;;4.10;;
73452;SDS011;61687;56.232;43.854;2023-05-08T05:56:41;6.53;;;4.30;;
73452;SDS011;61687;56.232;43.854;2023-05-08T05:59:08;7.20;;;3.72;;
73452;SDS011;61687;56.232;43.854;2023-05-08T06:01:34;5.88;;;3.78;;
73452;SDS011;61687;56.232;43.854;2023-05-08T06:04:01;6.90;;;4.47;;
73452;SDS011;61687;56.232;43.854;2023-05-08T06:06:27;7.40;;;4.13;;
73452;SDS011;61687;56.232;43.854;2023-05-08T06:08:53;9.25;;;3.83;;
73452;SDS011;61687;56.232;43.854;2023-05-08T06:11:22;5.60;;;3.65;;
73452;SDS011;61687;56.232;43.854;2023-05-08T06:13:48;5.50;;;4.00;;
73452;SDS011;61687;56.232;43.854;2023-05-08T06:16:14;6.80;;;4.10;;
73452;SDS011;61687;56.232;43.854;2023-05-08T06:18:40;6.87;;;3.87;;
73452;SDS011;61687;56.232;43.854;2023-05-08T06:21:06;5.97;;;3.80;;
73452;SDS011;61687;56.232;43.854;2023-05-08T06:23:32;4.88;;;3.70;;
73452;SDS011;61687;56.232;43.854;2023-05-08T06:25:58;5.57;;;2.92;;
73452;SDS011;61687;56.232;43.854;2023-05-08T06:28:24;4.10;;;2.83;;
73452;SDS011;61687;56.232;43.854;2023-05-08T06:30:51;4.55;;;3.30;;
73452;SDS011;61687;56.232;43.854;2023-05-08T06:33:17;4.90;;;3.95;;
73452;SDS011;61687;56.232;43.854;2023-05-08T06:35:46;6.13;;;3.20;;
73452;SDS011;61687;56.232;43.854;2023-05-08T06:38:13;4.93;;;4.00;;
73452;SDS011;61687;56.232;43.854;2023-05-08T06:40:42;4.80;;;3.00;;
73452;SDS011;61687;56.232;43.854;2023-05-08T06:43:09;4.60;;;3.42;;
73452;SDS011;61687;56.232;43.854;2023-05-08T06:45:36;5.38;;;3.42;;
73452;SDS011;61687;56.232;43.854;2023-05-08T06:48:02;4.40;;;3.42;;
73452;SDS011;61687;56.232;43.854;2023-05-08T06:50:28;5.90;;;3.40;;
73452;SDS011;61687;56.232;43.854;2023-05-08T06:52:54;5.35;;;3.30;;
73452;SDS011;61687;56.232;43.854;2023-05-08T06:55:21;5.57;;;3.85;;
73452;SDS011;61687;56.232;43.854;2023-05-08T06:57:47;4.47;;;3.22;;
73452;SDS011;61687;56.232;43.854;2023-05-08T07:00:13;44.30;;;3.50;;
73452;SDS011;61687;56.232;43.854;2023-05-08T07:02:39;5.85;;;2.80;;
73452;SDS011;61687;56.232;43.854;2023-05-08T07:05:05;4.38;;;2.55;;
73452;SDS011;61687;56.232;43.854;2023-05-08T07:07:32;8.30;;;3.25;;
73452;SDS011;61687;56.232;43.854;2023-05-08T07:09:58;4.03;;;2.97;;
73452;SDS011;61687;56.232;43.854;2023-05-08T07:12:24;4.80;;;2.97;;
73452;SDS011;61687;56.232;43.854;2023-05-08T07:14:50;3.58;;;2.58;;
73452;SDS011;61687;56.232;43.854;2023-05-08T07:17:16;4.15;;;3.33;;
73452;SDS011;61687;56.232;43.854;2023-05-08T07:19:42;5.63;;;2.28;;
73452;SDS011;61687;56.232;43.854;2023-05-08T07:22:08;4.93;;;3.00;;
73452;SDS011;61687;56.232;43.854;2023-05-08T07:24:35;4.73;;;3.63;;
73452;SDS011;61687;56.232;43.854;2023-05-08T07:27:01;5.57;;;3.80;;
73452;SDS011;61687;56.232;43.854;2023-05-08T07:29:27;4.15;;;3.17;;
73452;SDS011;61687;56.232;43.854;2023-05-08T07:31:53;5.07;;;2.72;;
73452;SDS011;61687;56.232;43.854;2023-05-08T07:34:20;3.85;;;3.00;;
73452;SDS011;61687;56.232;43.854;2023-05-08T07:36:45;5.43;;;2.80;;
73452;SDS011;61687;56.232;43.854;2023-05-08T07:39:12;5.47;;;3.55;;
73452;SDS011;61687;56.232;43.854;2023-05-08T07:41:38;4.15;;;2.22;;
73452;SDS011;61687;56.232;43.854;2023-05-08T07:44:05;7.82;;;3.15;;
73452;SDS011;61687;56.232;43.854;2023-05-08T07:46:31;6.13;;;3.75;;
73452;SDS011;61687;56.232;43.854;2023-05-08T07:48:57;4.23;;;2.67;;
73452;SDS011;61687;56.232;43.854;2023-05-08T07:51:23;4.10;;;3.17;;
73452;SDS011;61687;56.232;43.854;2023-05-08T07:53:49;10.50;;;2.58;;
73452;SDS011;61687;56.232;43.854;2023-05-08T07:56:16;4.45;;;3.17;;
73452;SDS011;61687;56.232;43.854;2023-05-08T07:58:42;3.10;;;2.25;;
73452;SDS011;61687;56.232;43.854;2023-05-08T08:01:10;4.33;;;2.23;;
73452;SDS011;61687;56.232;43.854;2023-05-08T08:03:36;3.88;;;3.10;;
73452;SDS011;61687;56.232;43.854;2023-05-08T08:06:02;4.53;;;3.22;;
73452;SDS011;61687;56.232;43.854;2023-05-08T08:08:28;7.22;;;3.45;;
73452;SDS011;61687;56.232;43.854;2023-05-08T08:10:54;5.67;;;3.50;;
73452;SDS011;61687;56.232;43.854;2023-05-08T08:13:20;5.20;;;3.23;;
73452;SDS011;61687;56.232;43.854;2023-05-08T08:15:46;5.50;;;2.92;;
73452;SDS011;61687;56.232;43.854;2023-05-08T08:18:12;6.95;;;4.93;;
73452;SDS011;61687;56.232;43.854;2023-05-08T08:20:39;4.57;;;2.80;;
73452;SDS011;61687;56.232;43.854;2023-05-08T08:23:05;4.03;;;2.85;;
73452;SDS011;61687;56.232;43.854;2023-05-08T08:25:31;5.03;;;2.80;;
73452;SDS011;61687;56.232;43.854;2023-05-08T08:27:57;5.47;;;2.65;;
73452;SDS011;61687;56.232;43.854;2023-05-08T08:30:23;4.05;;;2.80;;
73452;SDS011;61687;56.232;43.854;2023-05-08T08:32:49;4.65;;;2.65;;
73452;SDS011;61687;56.232;43.854;2023-05-08T08:35:15;8.05;;;3.10;;
73452;SDS011;61687;56.232;43.854;2023-05-08T08:37:41;10.50;;;3.00;;
73452;SDS011;61687;56.232;43.854;2023-05-08T08:40:07;7.63;;;2.88;;
73452;SDS011;61687;56.232;43.854;2023-05-08T08:42:34;3.70;;;2.60;;
73452;SDS011;61687;56.232;43.854;2023-05-08T08:45:00;4.13;;;2.47;;
73452;SDS011;61687;56.232;43.854;2023-05-08T08:47:26;6.17;;;3.00;;
73452;SDS011;61687;56.232;43.854;2023-05-08T08:49:54;4.80;;;2.17;;
73452;SDS011;61687;56.232;43.854;2023-05-08T08:55:10;7.32;;;2.60;;
73452;SDS011;61687;56.232;43.854;2023-05-08T08:57:53;4.40;;;3.40;;
73452;SDS011;61687;56.232;43.854;2023-05-08T09:00:31;3.40;;;2.47;;
73452;SDS011;61687;56.232;43.854;2023-05-08T09:03:01;4.50;;;2.55;;
73452;SDS011;61687;56.232;43.854;2023-05-08T09:05:30;4.30;;;2.95;;
73452;SDS011;61687;56.232;43.854;2023-05-08T09:07:57;3.65;;;2.45;;
73452;SDS011;61687;56.232;43.854;2023-05-08T09:10:24;4.05;;;2.75;;
73452;SDS011;61687;56.232;43.854;2023-05-08T09:12:50;3.07;;;1.83;;
73452;SDS011;61687;56.232;43.854;2023-05-08T09:15:17;3.50;;;1.90;;
73452;SDS011;61687;56.232;43.854;2023-05-08T09:17:43;3.50;;;2.17;;
73452;SDS011;61687;56.232;43.854;2023-05-08T09:20:09;5.63;;;2.67;;
73452;SDS011;61687;56.232;43.854;2023-05-08T09:22:36;5.10;;;2.67;;
73452;SDS011;61687;56.232;43.854;2023-05-08T09:25:02;4.80;;;2.93;;
73452;SDS011;61687;56.232;43.854;2023-05-08T09:27:30;4.43;;;2.38;;
73452;SDS011;61687;56.232;43.854;2023-05-08T09:32:33;4.18;;;2.60;;
73452;SDS011;61687;56.232;43.854;2023-05-08T09:35:02;3.67;;;2.72;;
73452;SDS011;61687;56.232;43.854;2023-05-08T09:37:32;4.83;;;3.10;;
73452;SDS011;61687;56.232;43.854;2023-05-08T09:40:20;3.90;;;2.92;;
73452;SDS011;61687;56.232;43.854;2023-05-08T09:42:48;3.20;;;2.33;;
73452;SDS011;61687;56.232;43.854;2023-05-08T09:45:25;3.80;;;2.38;;
73452;SDS011;61687;56.232;43.854;2023-05-08T09:47:51;8.35;;;3.10;;
73452;SDS011;61687;56.232;43.854;2023-05-08T09:50:17;5.80;;;2.90;;
73452;SDS011;61687;56.232;43.854;2023-05-08T09:52:47;3.80;;;2.67;;
73452;SDS011;61687;56.232;43.854;2023-05-08T09:55:15;4.60;;;2.40;;
73452;SDS011;61687;56.232;43.854;2023-05-08T09:57:54;5.57;;;2.30;;
73452;SDS011;61687;56.232;43.854;2023-05-08T10:00:23;4.07;;;2.87;;
73452;SDS011;61687;56.232;43.854;2023-05-08T10:02:58;4.63;;;3.20;;
73452;SDS011;61687;56.232;43.854;2023-05-08T10:05:32;7.13;;;3.00;;
73452;SDS011;61687;56.232;43.854;2023-05-08T10:08:20;4.72;;;3.17;;
73452;SDS011;61687;56.232;43.854;2023-05-08T10:10:48;5.40;;;3.03;;
73452;SDS011;61687;56.232;43.854;2023-05-08T10:13:15;5.63;;;3.07;;
73452;SDS011;61687;56.232;43.854;2023-05-08T10:15:41;4.00;;;3.00;;
73452;SDS011;61687;56.232;43.854;2023-05-08T10:18:08;3.85;;;2.17;;
73452;SDS011;61687;56.232;43.854;2023-05-08T10:20:38;5.72;;;2.65;;
73452;SDS011;61687;56.232;43.854;2023-05-08T10:23:09;4.57;;;2.75;;
73452;SDS011;61687;56.232;43.854;2023-05-08T10:25:43;7.30;;;2.40;;
73452;SDS011;61687;56.232;43.854;2023-05-08T10:31:06;3.55;;;2.63;;
73452;SDS011;61687;56.232;43.854;2023-05-08T10:33:33;3.33;;;2.33;;
73452;SDS011;61687;56.232;43.854;2023-05-08T10:35:59;4.03;;;2.72;;
73452;SDS011;61687;56.232;43.854;2023-05-08T10:38:26;4.90;;;2.50;;
73452;SDS011;61687;56.232;43.854;2023-05-08T10:40:52;5.35;;;2.85;;
73452;SDS011;61687;56.232;43.854;2023-05-08T10:43:23;3.53;;;2.80;;
73452;SDS011;61687;56.232;43.854;2023-05-08T10:45:54;5.45;;;2.92;;
73452;SDS011;61687;56.232;43.854;2023-05-08T10:54:07;6.47;;;2.63;;
73452;SDS011;61687;56.232;43.854;2023-05-08T10:56:38;6.55;;;3.08;;
73452;SDS011;61687;56.232;43.854;2023-05-08T10:59:04;5.97;;;2.60;;
73452;SDS011;61687;56.232;43.854;2023-05-08T11:01:30;7.20;;;2.80;;
73452;SDS011;61687;56.232;43.854;2023-05-08T11:03:57;5.67;;;2.80;;
73452;SDS011;61687;56.232;43.854;2023-05-08T11:06:42;3.55;;;2.42;;
73452;SDS011;61687;56.232;43.854;2023-05-08T11:09:17;5.43;;;3.10;;
73452;SDS011;61687;56.232;43.854;2023-05-08T11:11:58;8.25;;;3.22;;
73452;SDS011;61687;56.232;43.854;2023-05-08T11:14:32;4.40;;;2.10;;
73452;SDS011;61687;56.232;43.854;2023-05-08T11:19:28;3.65;;;2.28;;
73452;SDS011;61687;56.232;43.854;2023-05-08T11:24:35;5.05;;;2.53;;
73452;SDS011;61687;56.232;43.854;2023-05-08T11:27:03;3.97;;;2.57;;
73452;SDS011;61687;56.232;43.854;2023-05-08T11:29:29;4.15;;;2.30;;
73452;SDS011;61687;56.232;43.854;2023-05-08T11:31:55;7.03;;;2.70;;
73452;SDS011;61687;56.232;43.854;2023-05-08T11:37:10;5.25;;;3.00;;
73452;SDS011;61687;56.232;43.854;2023-05-08T11:39:41;7.07;;;4.13;;
73452;SDS011;61687;56.232;43.854;2023-05-08T11:45:08;6.50;;;4.05;;
73452;SDS011;61687;56.232;43.854;2023-05-08T11:50:09;4.45;;;2.88;;
73452;SDS011;61687;56.232;43.854;2023-05-08T11:52:37;4.67;;;2.70;;
73452;SDS011;61687;56.232;43.854;2023-05-08T11:55:04;6.15;;;3.03;;
73452;SDS011;61687;56.232;43.854;2023-05-08T11:57:32;8.05;;;2.97;;
73452;SDS011;61687;56.232;43.854;2023-05-08T12:00:10;4.80;;;2.67;;
73452;SDS011;61687;56.232;43.854;2023-05-08T12:02:41;4.97;;;2.33;;
73452;SDS011;61687;56.232;43.854;2023-05-08T12:05:08;4.03;;;1.90;;
73452;SDS011;61687;56.232;43.854;2023-05-08T12:07:45;5.88;;;2.70;;
73452;SDS011;61687;56.232;43.854;2023-05-08T12:10:12;7.82;;;2.97;;
73452;SDS011;61687;56.232;43.854;2023-05-08T12:12:39;3.72;;;2.53;;
73452;SDS011;61687;56.232;43.854;2023-05-08T12:15:09;6.13;;;2.58;;
73452;SDS011;61687;56.232;43.854;2023-05-08T12:17:37;7.10;;;2.77;;
73452;SDS011;61687;56.232;43.854;2023-05-08T12:20:10;5.38;;;3.72;;
73452;SDS011;61687;56.232;43.854;2023-05-08T12:22:41;6.22;;;3.65;;
73452;SDS011;61687;56.232;43.854;2023-05-08T12:25:15;4.57;;;2.50;;
73452;SDS011;61687;56.232;43.854;2023-05-08T12:27:41;6.53;;;2.70;;
73452;SDS011;61687;56.232;43.854;2023-05-08T12:30:09;3.90;;;2.37;;
73452;SDS011;61687;56.232;43.854;2023-05-08T12:32:37;5.75;;;2.97;;
73452;SDS011;61687;56.232;43.854;2023-05-08T12:35:05;5.53;;;3.50;;
73452;SDS011;61687;56.232;43.854;2023-05-08T12:37:35;4.55;;;2.70;;
73452;SDS011;61687;56.232;43.854;2023-05-08T12:40:02;5.05;;;3.22;;
73452;SDS011;61687;56.232;43.854;2023-05-08T12:42:40;4.80;;;2.97;;
73452;SDS011;61687;56.232;43.854;2023-05-08T12:45:07;6.88;;;3.95;;
73452;SDS011;61687;56.232;43.854;2023-05-08T12:47:33;7.28;;;2.88;;
73452;SDS011;61687;56.232;43.854;2023-05-08T12:49:59;6.65;;;4.13;;
73452;SDS011;61687;56.232;43.854;2023-05-08T12:52:25;4.40;;;2.80;;
73452;SDS011;61687;56.232;43.854;2023-05-08T12:54:52;9.00;;;3.00;;
73452;SDS011;61687;56.232;43.854;2023-05-08T12:57:18;5.80;;;3.50;;
73452;SDS011;61687;56.232;43.854;2023-05-08T12:59:47;7.75;;;2.42;;
73452;SDS011;61687;56.232;43.854;2023-05-08T13:02:14;7.95;;;2.33;;
73452;SDS011;61687;56.232;43.854;2023-05-08T13:04:46;5.00;;;2.50;;
73452;SDS011;61687;56.232;43.854;2023-05-08T13:07:12;4.07;;;2.65;;
73452;SDS011;61687;56.232;43.854;2023-05-08T13:09:38;4.35;;;2.65;;
73452;SDS011;61687;56.232;43.854;2023-05-08T13:12:05;4.38;;;2.53;;
73452;SDS011;61687;56.232;43.854;2023-05-08T13:14:31;5.90;;;2.80;;
73452;SDS011;61687;56.232;43.854;2023-05-08T13:16:57;5.37;;;2.73;;
73452;SDS011;61687;56.232;43.854;2023-05-08T13:19:24;5.28;;;2.72;;
73452;SDS011;61687;56.232;43.854;2023-05-08T13:21:51;5.07;;;2.95;;
73452;SDS011;61687;56.232;43.854;2023-05-08T13:24:17;6.72;;;2.40;;
73452;SDS011;61687;56.232;43.854;2023-05-08T13:26:43;6.50;;;2.83;;
73452;SDS011;61687;56.232;43.854;2023-05-08T13:29:10;5.43;;;2.67;;
73452;SDS011;61687;56.232;43.854;2023-05-08T13:31:36;4.75;;;2.72;;
73452;SDS011;61687;56.232;43.854;2023-05-08T13:34:02;5.37;;;2.37;;
73452;SDS011;61687;56.232;43.854;2023-05-08T13:36:28;26.33;;;3.93;;
73452;SDS011;61687;56.232;43.854;2023-05-08T13:38:54;9.50;;;2.63;;
73452;SDS011;61687;56.232;43.854;2023-05-08T13:41:21;5.72;;;2.80;;
73452;SDS011;61687;56.232;43.854;2023-05-08T13:43:47;6.85;;;2.53;;
73452;SDS011;61687;56.232;43.854;2023-05-08T13:46:13;6.82;;;2.80;;
73452;SDS011;61687;56.232;43.854;2023-05-08T13:48:39;4.83;;;3.17;;
73452;SDS011;61687;56.232;43.854;2023-05-08T13:51:05;7.03;;;3.22;;
73452;SDS011;61687;56.232;43.854;2023-05-08T13:53:31;8.10;;;2.83;;
73452;SDS011;61687;56.232;43.854;2023-05-08T13:55:58;8.50;;;3.08;;
73452;SDS011;61687;56.232;43.854;2023-05-08T13:58:24;6.50;;;2.67;;
73452;SDS011;61687;56.232;43.854;2023-05-08T14:00:50;4.25;;;2.42;;
73452;SDS011;61687;56.232;43.854;2023-05-08T14:03:16;6.63;;;3.28;;
73452;SDS011;61687;56.232;43.854;2023-05-08T14:05:42;4.40;;;2.85;;
73452;SDS011;61687;56.232;43.854;2023-05-08T14:08:08;8.10;;;3.80;;
73452;SDS011;61687;56.232;43.854;2023-05-08T14:10:35;7.13;;;3.50;;
73452;SDS011;61687;56.232;43.854;2023-05-08T14:13:01;5.90;;;2.90;;
73452;SDS011;61687;56.232;43.854;2023-05-08T14:15:27;6.57;;;3.65;;
73452;SDS011;61687;56.232;43.854;2023-05-08T14:17:53;7.30;;;3.10;;
73452;SDS011;61687;56.232;43.854;2023-05-08T14:20:18;4.70;;;2.73;;
73452;SDS011;61687;56.232;43.854;2023-05-08T14:22:44;10.00;;;3.20;;
73452;SDS011;61687;56.232;43.854;2023-05-08T14:25:10;6.63;;;3.95;;
73452;SDS011;61687;56.232;43.854;2023-05-08T14:27:36;9.00;;;4.67;;
73452;SDS011;61687;56.232;43.854;2023-05-08T14:30:02;10.27;;;5.03;;
73452;SDS011;61687;56.232;43.854;2023-05-08T14:32:34;9.60;;;3.47;;
73452;SDS011;61687;56.232;43.854;2023-05-08T14:35:00;6.43;;;3.60;;
73452;SDS011;61687;56.232;43.854;2023-05-08T14:37:26;5.75;;;2.88;;
73452;SDS011;61687;56.232;43.854;2023-05-08T14:39:52;4.88;;;2.65;;
73452;SDS011;61687;56.232;43.854;2023-05-08T14:42:20;7.43;;;3.30;;
73452;SDS011;61687;56.232;43.854;2023-05-08T14:44:46;6.43;;;3.03;;
73452;SDS011;61687;56.232;43.854;2023-05-08T14:47:12;7.82;;;3.35;;
73452;SDS011;61687;56.232;43.854;2023-05-08T14:49:38;5.40;;;3.30;;
73452;SDS011;61687;56.232;43.854;2023-05-08T14:52:04;5.30;;;3.33;;
73452;SDS011;61687;56.232;43.854;2023-05-08T14:54:31;6.13;;;3.00;;
73452;SDS011;61687;56.232;43.854;2023-05-08T14:56:57;8.80;;;3.58;;
73452;SDS011;61687;56.232;43.854;2023-05-08T14:59:23;7.30;;;2.50;;
73452;SDS011;61687;56.232;43.854;2023-05-08T15:01:49;4.70;;;3.23;;
73452;SDS011;61687;56.232;43.854;2023-05-08T15:04:15;7.68;;;2.95;;
73452;SDS011;61687;56.232;43.854;2023-05-08T15:06:41;6.53;;;2.58;;
73452;SDS011;61687;56.232;43.854;2023-05-08T15:09:07;3.93;;;2.57;;
73452;SDS011;61687;56.232;43.854;2023-05-08T15:11:34;7.87;;;2.47;;
73452;SDS011;61687;56.232;43.854;2023-05-08T15:14:02;5.70;;;2.78;;
73452;SDS011;61687;56.232;43.854;2023-05-08T15:16:29;3.95;;;2.92;;
73452;SDS011;61687;56.232;43.854;2023-05-08T15:18:55;3.78;;;2.80;;
73452;SDS011;61687;56.232;43.854;2023-05-08T15:21:21;8.30;;;3.13;;
73452;SDS011;61687;56.232;43.854;2023-05-08T15:23:53;3.90;;;2.90;;